Sea Venture — WDH8313 — position and weather

sailwx.info

Track history (hours):
 
Tides and Currents Weather Stations Pressure Air Temp Water Temp Dewpoint Dewpoint Depression Visibility Wind Speed Wind Dir Waves Ship Positions

Sea Venture

Owner: Addington, James, Everett, WA. More information available from US FCC via Universal Licensing System and Coast Guard Vessel Documentation Center.

Last reported at 2018-Jul-04 18:20 UTC. Time now 2018-Jul-23 17:36 UTC.
Position N 58°20' W 135°30'.
Warning: this ship's position is 18 days out of date.

Length 17 m.

Type: Pleasure craft. MMSI: 366711270.

Date/timePositionNaut miles runAvg speedWind from/ knotsBaromVisibWave heightAir tempDewpointWater temp
2018-Jul-04 18:20N 58°20' W 135°30'3 6.8
2018-Jul-04 17:54N 58°23' W 135°33'4 6.4
2018-Jul-04 17:18N 58°23' W 135°40'2 6.0
2018-Jul-04 17:00N 58°23' W 135°43'4 6.1
2018-Jul-04 16:24N 58°22' W 135°50'3 6.2
2018-Jul-04 15:57N 58°22' W 135°55'3 6.7
2018-Jul-04 15:30N 58°24' W 135°58'4 8.1
2018-Jul-04 14:58N 58°28' W 136°02'4 8.3
2018-Jul-04 14:30N 58°32' W 136°05'4 8.2
2018-Jul-04 13:59N 58°36' W 136°05'3 6.4
2018-Jul-04 13:30N 58°39' W 136°03'3 6.6
2018-Jul-04 13:00N 58°42' W 136°00'1 0.3
2018-Jul-04 10:15N 58°43' W 135°59'0 0.0
2018-Jul-04 04:52N 58°43' W 135°59'0 0.0
2018-Jul-04 04:28N 58°43' W 135°59'0 0.0
2018-Jul-04 03:25N 58°43' W 135°59'0 0.0
2018-Jul-04 02:02N 58°43' W 135°59'0 0.0
2018-Jul-04 01:59N 58°43' W 135°59'0 0.0
2018-Jul-04 01:29N 58°43' W 135°59'0 0.0
2018-Jul-04 00:29N 58°43' W 135°59'  
2018-Jul-01 01:43N 58°39' W 136°15'2 6.1
2018-Jul-01 01:26N 58°37' W 136°13'3 6.1
2018-Jul-01 00:54N 58°35' W 136°09'2 5.7
2018-Jul-01 00:29N 58°33' W 136°07'3 6.2
2018-Jul-01 00:00N 58°30' W 136°03'4 8.1
2018-Jun-30 23:30N 58°27' W 135°60'3 5.7
2018-Jun-30 22:59N 58°27' W 135°54'1 1.0
2018-Jun-30 22:28N 58°27' W 135°53'0 0.0
2018-Jun-30 21:55N 58°27' W 135°53'0 0.0
2018-Jun-30 21:28N 58°27' W 135°53'0 0.2
2018-Jun-30 21:00N 58°27' W 135°53'4 7.1
2018-Jun-30 20:30N 58°25' W 135°58'610.0
2018-Jun-30 19:56N 58°20' W 136°04'  
Track history (hours):
 
Tides and Currents Weather Stations Pressure Air Temp Water Temp Dewpoint Dewpoint Depression Visibility Wind Speed Wind Dir Waves Ship Positions

Sea Venture

Owner: Addington, James, Everett, WA. More information available from US FCC via Universal Licensing System and Coast Guard Vessel Documentation Center.

Last reported at 2018-Jul-04 18:20 UTC. Time now 2018-Jul-23 17:36 UTC.
Position N 58°20' W 135°30'.
Warning: this ship's position is 18 days out of date.

Length 17 m.

Type: Pleasure craft. MMSI: 366711270.

Date/timePositionNaut miles runAvg speedWind from/ knotsBaromVisibWave heightAir tempDewpointWater temp
2018-Jul-04 18:20N 58°20' W 135°30'3 6.8
2018-Jul-04 17:54N 58°23' W 135°33'4 6.4
2018-Jul-04 17:18N 58°23' W 135°40'2 6.0
2018-Jul-04 17:00N 58°23' W 135°43'4 6.1
2018-Jul-04 16:24N 58°22' W 135°50'3 6.2
2018-Jul-04 15:57N 58°22' W 135°55'3 6.7
2018-Jul-04 15:30N 58°24' W 135°58'4 8.1
2018-Jul-04 14:58N 58°28' W 136°02'4 8.3
2018-Jul-04 14:30N 58°32' W 136°05'4 8.2
2018-Jul-04 13:59N 58°36' W 136°05'3 6.4
2018-Jul-04 13:30N 58°39' W 136°03'3 6.6
2018-Jul-04 13:00N 58°42' W 136°00'1 0.3
2018-Jul-04 10:15N 58°43' W 135°59'0 0.0
2018-Jul-04 04:52N 58°43' W 135°59'0 0.0
2018-Jul-04 04:28N 58°43' W 135°59'0 0.0
2018-Jul-04 03:25N 58°43' W 135°59'0 0.0
2018-Jul-04 02:02N 58°43' W 135°59'0 0.0
2018-Jul-04 01:59N 58°43' W 135°59'0 0.0
2018-Jul-04 01:29N 58°43' W 135°59'0 0.0
2018-Jul-04 00:29N 58°43' W 135°59'  
2018-Jul-01 01:43N 58°39' W 136°15'2 6.1
2018-Jul-01 01:26N 58°37' W 136°13'3 6.1
2018-Jul-01 00:54N 58°35' W 136°09'2 5.7
2018-Jul-01 00:29N 58°33' W 136°07'3 6.2
2018-Jul-01 00:00N 58°30' W 136°03'4 8.1
2018-Jun-30 23:30N 58°27' W 135°60'3 5.7
2018-Jun-30 22:59N 58°27' W 135°54'1 1.0
2018-Jun-30 22:28N 58°27' W 135°53'0 0.0
2018-Jun-30 21:55N 58°27' W 135°53'0 0.0
2018-Jun-30 21:28N 58°27' W 135°53'0 0.2
2018-Jun-30 21:00N 58°27' W 135°53'4 7.1
2018-Jun-30 20:30N 58°25' W 135°58'610.0
2018-Jun-30 19:56N 58°20' W 136°04'  

Dump ship's entire track history